createdAt,value
2018-09-28T00:02:13.320Z,47.51
2018-09-28T00:04:42.445Z,47.24
2018-09-28T00:07:11.992Z,47.37
2018-09-28T00:09:41.201Z,47.38
2018-09-28T00:12:10.261Z,47.55
2018-09-28T00:14:39.319Z,47.28
2018-09-28T00:17:08.655Z,47.39
2018-09-28T00:19:37.859Z,47.49
2018-09-28T00:22:06.933Z,47.52
2018-09-28T00:24:36.004Z,47.32
2018-09-28T00:27:05.079Z,47.52
2018-09-28T00:29:34.167Z,47.32
2018-09-28T00:32:03.231Z,47.34
2018-09-28T00:34:32.335Z,47.57
2018-09-28T00:37:01.421Z,47.62
2018-09-28T00:39:30.891Z,47.81
2018-09-28T00:41:59.971Z,47.82
2018-09-28T00:44:29.107Z,47.71
2018-09-28T00:46:58.211Z,47.94
2018-09-28T00:49:27.271Z,47.97
2018-09-28T00:51:56.343Z,47.65
2018-09-28T00:54:25.421Z,47.87
2018-09-28T00:56:54.514Z,47.60
2018-09-28T00:59:23.595Z,47.85
2018-09-28T01:01:52.681Z,47.92
2018-09-28T01:04:21.897Z,47.91
2018-09-28T01:06:51.284Z,47.71
2018-09-28T01:09:20.483Z,48.13
2018-09-28T01:11:49.605Z,47.73
2018-09-28T01:14:18.692Z,47.98
2018-09-28T01:16:47.771Z,48.10
2018-09-28T01:19:16.868Z,47.86
2018-09-28T01:21:45.963Z,48.31
2018-09-28T01:24:15.047Z,47.80
2018-09-28T01:26:44.185Z,48.00
2018-09-28T01:29:13.260Z,47.80
2018-09-28T01:31:42.611Z,47.95
2018-09-28T01:34:11.735Z,48.06
2018-09-28T01:36:40.832Z,48.16
2018-09-28T01:39:10.611Z,47.89
2018-09-28T01:41:39.914Z,48.01
2018-09-28T01:44:09.123Z,48.23
2018-09-28T01:46:38.260Z,47.75
2018-09-28T01:49:07.327Z,48.05
2018-09-28T01:51:36.397Z,48.34
2018-09-28T01:54:05.523Z,48.25
2018-09-28T01:56:34.611Z,47.81
2018-09-28T01:59:03.731Z,47.88
2018-09-28T02:01:33.033Z,48.17
2018-09-28T02:04:02.161Z,47.99
2018-09-28T02:06:31.323Z,48.00
2018-09-28T02:09:06.571Z,47.93
2018-09-28T02:11:35.659Z,47.86
2018-09-28T02:14:04.729Z,48.11
2018-09-28T02:16:33.817Z,48.00
2018-09-28T02:19:02.975Z,48.03
2018-09-28T02:21:32.146Z,47.96
2018-09-28T02:24:01.383Z,47.83
2018-09-28T02:26:30.452Z,48.11
2018-09-28T02:28:59.579Z,48.21
2018-09-28T02:31:28.761Z,47.91
2018-09-28T02:33:57.819Z,48.05
2018-09-28T02:36:26.953Z,48.02
2018-09-28T02:38:56.027Z,48.28
2018-09-28T02:41:25.233Z,48.02
2018-09-28T02:43:54.414Z,48.11
2018-09-28T02:46:23.875Z,47.97
2018-09-28T02:48:53.018Z,48.08
2018-09-28T02:51:22.121Z,47.91
2018-09-28T02:53:51.199Z,47.95
2018-09-28T02:56:20.319Z,48.01
2018-09-28T02:58:49.412Z,47.81
2018-09-28T03:01:18.472Z,47.92
2018-09-28T03:03:47.621Z,48.02
2018-09-28T03:06:16.828Z,48.15
2018-09-28T03:08:46.067Z,47.99
2018-09-28T03:11:15.137Z,47.83
2018-09-28T03:13:44.503Z,48.08
2018-09-28T03:16:13.597Z,48.03
2018-09-28T03:18:42.903Z,47.67
2018-09-28T03:21:11.995Z,47.75
2018-09-28T03:23:41.062Z,47.91
2018-09-28T03:26:10.134Z,47.71
2018-09-28T03:28:39.372Z,47.78
2018-09-28T03:31:08.440Z,47.88
2018-09-28T03:33:37.568Z,47.70
2018-09-28T03:36:06.688Z,47.77
2018-09-28T03:38:36.340Z,47.90
2018-09-28T03:41:05.448Z,48.12
2018-09-28T03:43:34.728Z,47.77
2018-09-28T03:46:03.780Z,47.99
2018-09-28T03:48:32.848Z,47.61
2018-09-28T03:51:01.961Z,47.68
2018-09-28T03:53:31.052Z,47.75
2018-09-28T03:56:00.132Z,48.07
2018-09-28T03:58:29.200Z,47.85
2018-09-28T04:00:58.349Z,47.86
2018-09-28T04:03:27.452Z,48.07
2018-09-28T04:05:56.663Z,47.68
2018-09-28T04:08:25.772Z,48.12
2018-09-28T04:10:54.926Z,47.93
2018-09-28T04:13:23.928Z,47.87
2018-09-28T04:15:53.024Z,48.00
2018-09-28T04:18:22.100Z,47.77
2018-09-28T04:20:51.320Z,47.76
2018-09-28T04:23:20.402Z,47.89
2018-09-28T04:25:49.494Z,47.56
2018-09-28T04:28:18.495Z,47.80
2018-09-28T04:30:47.599Z,47.75
2018-09-28T04:33:16.677Z,47.53
2018-09-28T04:35:46.183Z,47.46
2018-09-28T04:38:15.172Z,47.70
2018-09-28T04:40:44.389Z,47.51
2018-09-28T04:43:13.431Z,47.85
2018-09-28T04:45:42.585Z,47.82
2018-09-28T04:48:11.852Z,47.49
2018-09-28T04:50:40.916Z,47.47
2018-09-28T04:53:10.090Z,47.75
2018-09-28T04:55:39.200Z,47.88
2018-09-28T04:58:08.270Z,47.77
2018-09-28T05:00:37.457Z,47.86
2018-09-28T05:03:06.753Z,47.54
2018-09-28T05:05:35.881Z,47.41
2018-09-28T05:08:04.852Z,47.52
2018-09-28T05:10:33.939Z,47.62
2018-09-28T05:13:03.231Z,47.64
2018-09-28T05:15:32.458Z,47.92
2018-09-28T05:18:01.512Z,47.31
2018-09-28T05:20:30.637Z,47.67
2018-09-28T05:22:59.693Z,47.40
2018-09-28T05:25:28.788Z,47.36
2018-09-28T05:27:58.006Z,47.44
2018-09-28T05:30:26.977Z,47.43
2018-09-28T05:32:56.156Z,47.34
2018-09-28T05:35:25.252Z,47.43
2018-09-28T05:37:54.308Z,47.32
2018-09-28T05:40:23.500Z,47.37
2018-09-28T05:42:52.596Z,47.51
2018-09-28T05:45:21.794Z,47.37
2018-09-28T05:47:50.917Z,47.26
2018-09-28T05:50:20.050Z,47.16
2018-09-28T05:52:49.056Z,47.48
2018-09-28T05:55:18.165Z,47.59
2018-09-28T05:57:47.268Z,47.15
2018-09-28T06:00:21.850Z,47.51
2018-09-28T06:02:56.248Z,47.10
2018-09-28T06:05:30.779Z,47.46
2018-09-28T06:08:00.657Z,47.32
2018-09-28T06:10:29.703Z,47.15
2018-09-28T06:12:58.834Z,47.12
2018-09-28T06:15:27.986Z,47.21
2018-09-28T06:17:57.104Z,47.05
2018-09-28T06:20:26.380Z,47.11
2018-09-28T06:22:55.630Z,47.08
2018-09-28T06:25:24.736Z,47.00
2018-09-28T06:27:53.800Z,46.91
2018-09-28T06:30:22.932Z,46.65
2018-09-28T06:32:52.045Z,47.13
2018-09-28T06:35:21.135Z,46.87
2018-09-28T06:37:50.210Z,46.93
2018-09-28T06:40:19.388Z,46.68
2018-09-28T06:42:48.495Z,46.70
2018-09-28T06:45:17.619Z,46.69
2018-09-28T06:47:46.708Z,46.59
2018-09-28T06:50:16.014Z,46.51
2018-09-28T06:52:45.101Z,46.72
2018-09-28T06:55:14.267Z,47.04
2018-09-28T06:57:43.507Z,46.58
2018-09-28T07:00:12.662Z,46.86
2018-09-28T07:02:42.020Z,46.40
2018-09-28T07:05:11.111Z,46.41
2018-09-28T07:07:41.341Z,46.83
2018-09-28T07:10:10.528Z,47.69
2018-09-28T07:12:39.686Z,47.60
2018-09-28T07:15:08.802Z,47.57
2018-09-28T07:17:38.026Z,47.62
2018-09-28T07:20:07.184Z,47.44
2018-09-28T07:22:36.523Z,47.46
2018-09-28T07:25:06.252Z,47.04
2018-09-28T07:27:35.539Z,47.20
2018-09-28T07:30:05.046Z,46.81
2018-09-28T07:32:34.289Z,46.94
2018-09-28T07:35:03.438Z,46.87
2018-09-28T07:37:32.493Z,47.04
2018-09-28T07:40:01.645Z,46.82
2018-09-28T07:42:30.720Z,46.48
2018-09-28T07:44:59.794Z,46.69
2018-09-28T07:47:28.997Z,46.27
2018-09-28T07:49:58.141Z,45.66
2018-09-28T07:52:27.308Z,45.94
2018-09-28T07:54:56.483Z,46.43
2018-09-28T07:57:25.590Z,46.08
2018-09-28T07:59:54.703Z,45.87
2018-09-28T08:02:23.788Z,45.60
2018-09-28T08:04:52.872Z,45.66
2018-09-28T08:07:21.967Z,45.93
2018-09-28T08:09:51.098Z,46.49
2018-09-28T08:12:20.285Z,46.58
2018-09-28T08:14:49.372Z,47.11
2018-09-28T08:17:18.480Z,46.76
2018-09-28T08:19:47.606Z,46.81
2018-09-28T08:22:16.781Z,47.89
2018-09-28T08:24:46.038Z,47.51
2018-09-28T08:27:15.379Z,47.78
2018-09-28T08:29:44.560Z,46.64
2018-09-28T08:32:13.769Z,46.63
2018-09-28T08:34:43.118Z,46.84
2018-09-28T08:37:12.219Z,46.75
2018-09-28T08:39:41.351Z,46.68
2018-09-28T08:42:10.467Z,46.76
2018-09-28T08:44:39.517Z,46.75
2018-09-28T08:47:08.593Z,46.63
2018-09-28T08:49:37.731Z,46.34
2018-09-28T08:52:06.846Z,45.92
2018-09-28T08:54:36.013Z,46.18
2018-09-28T08:57:05.253Z,45.56
2018-09-28T08:59:34.371Z,45.55
2018-09-28T09:02:03.441Z,45.92
2018-09-28T09:04:32.802Z,45.40
2018-09-28T09:07:01.920Z,45.37
2018-09-28T09:09:31.019Z,45.34
2018-09-28T09:12:00.122Z,45.27
2018-09-28T09:14:29.213Z,44.54
2018-09-28T09:16:58.271Z,44.77
2018-09-28T09:19:27.345Z,44.55
2018-09-28T09:21:56.616Z,44.45
2018-09-28T09:24:25.807Z,44.09
2018-09-28T09:26:54.944Z,44.20
2018-09-28T09:29:24.025Z,44.17
2018-09-28T09:31:53.186Z,44.23
2018-09-28T09:34:22.319Z,44.30
2018-09-28T09:36:51.569Z,44.63
2018-09-28T09:39:20.680Z,44.02
2018-09-28T09:41:49.845Z,44.48
2018-09-28T09:44:19.201Z,44.43
2018-09-28T09:46:48.274Z,44.33
2018-09-28T09:49:17.340Z,44.03
2018-09-28T09:51:46.459Z,44.36
2018-09-28T09:54:15.582Z,45.19
2018-09-28T09:56:44.651Z,45.28
2018-09-28T09:59:13.715Z,45.63
2018-09-28T10:01:48.124Z,44.84
2018-09-28T10:04:17.261Z,45.03
2018-09-28T10:06:46.365Z,45.20
2018-09-28T10:09:15.567Z,44.25
2018-09-28T10:11:44.667Z,45.14
2018-09-28T10:14:13.742Z,45.44
2018-09-28T10:16:43.013Z,45.56
2018-09-28T10:19:12.199Z,45.36
2018-09-28T10:21:41.605Z,45.11
2018-09-28T10:24:10.763Z,45.04
2018-09-28T10:26:39.937Z,44.92
2018-09-28T10:29:09.179Z,44.73
2018-09-28T10:31:38.385Z,44.93
2018-09-28T10:34:07.693Z,45.02
2018-09-28T10:36:37.018Z,44.95
2018-09-28T10:39:07.817Z,45.14
2018-09-28T10:41:37.241Z,44.53
2018-09-28T10:44:07.007Z,44.56
2018-09-28T10:46:36.371Z,44.62
2018-09-28T10:49:05.517Z,44.42
2018-09-28T10:51:34.629Z,42.94
2018-09-28T10:54:04.211Z,43.01
2018-09-28T10:56:33.433Z,43.04
2018-09-28T10:59:02.518Z,43.32
2018-09-28T11:01:31.656Z,43.58
2018-09-28T11:04:00.737Z,43.36
2018-09-28T11:06:30.101Z,43.42
2018-09-28T11:09:00.475Z,43.01
2018-09-28T11:11:29.688Z,42.83
2018-09-28T11:13:58.775Z,42.23
2018-09-28T11:16:27.889Z,42.11
2018-09-28T11:18:57.111Z,41.91
2018-09-28T11:21:26.425Z,41.33
2018-09-28T11:23:55.957Z,41.26
2018-09-28T11:26:25.173Z,42.13
2018-09-28T11:28:54.410Z,42.93
2018-09-28T11:31:23.781Z,42.42
2018-09-28T11:33:52.825Z,42.61
2018-09-28T11:36:21.916Z,42.73
2018-09-28T11:38:51.051Z,42.87
2018-09-28T11:41:20.162Z,42.68
2018-09-28T11:43:49.245Z,42.88
2018-09-28T11:46:18.411Z,42.74
2018-09-28T11:48:47.511Z,42.88
2018-09-28T11:51:16.655Z,42.76
2018-09-28T11:53:45.847Z,42.31
2018-09-28T11:56:14.919Z,42.37
2018-09-28T11:58:44.068Z,42.23
2018-09-28T12:01:13.185Z,42.56
2018-09-28T12:03:42.272Z,42.79
2018-09-28T12:06:11.642Z,42.86
2018-09-28T12:08:40.956Z,43.04
2018-09-28T12:11:10.162Z,42.96
2018-09-28T12:13:39.269Z,42.73
2018-09-28T12:16:08.385Z,42.71
2018-09-28T12:18:37.564Z,42.51
2018-09-28T12:21:06.850Z,42.61
2018-09-28T12:23:36.123Z,42.86
2018-09-28T12:26:05.195Z,42.42
2018-09-28T12:28:34.275Z,42.19
2018-09-28T12:31:03.313Z,42.28
2018-09-28T12:33:32.497Z,42.34
2018-09-28T12:36:02.087Z,42.24
2018-09-28T12:38:31.360Z,42.33
2018-09-28T12:41:00.454Z,41.71
2018-09-28T12:43:35.030Z,41.51
2018-09-28T12:45:58.867Z,41.58
2018-09-28T12:48:28.007Z,41.15
2018-09-28T12:50:57.233Z,41.51
2018-09-28T12:53:26.347Z,41.50
2018-09-28T12:55:55.440Z,41.80
2018-09-28T12:58:25.476Z,41.24
2018-09-28T13:00:55.241Z,41.25
2018-09-28T13:03:24.399Z,41.31
2018-09-28T13:05:53.460Z,41.33
2018-09-28T13:08:22.592Z,41.26
2018-09-28T13:10:51.828Z,41.36
2018-09-28T13:13:20.883Z,41.43
2018-09-28T13:15:49.975Z,41.50
2018-09-28T13:18:19.134Z,41.46
2018-09-28T13:20:48.451Z,41.17
2018-09-28T13:23:17.615Z,41.37
2018-09-28T13:25:46.660Z,41.40
2018-09-28T13:28:15.840Z,41.44
2018-09-28T13:30:45.027Z,41.18
2018-09-28T13:33:14.227Z,41.28
2018-09-28T13:35:43.479Z,41.24
2018-09-28T13:38:18.127Z,41.46
2018-09-28T13:40:47.365Z,41.27
2018-09-28T13:43:16.442Z,41.12
2018-09-28T13:45:45.704Z,41.18
2018-09-28T13:48:14.884Z,41.16
2018-09-28T13:50:44.297Z,41.10
2018-09-28T13:53:13.560Z,40.97
2018-09-28T13:55:42.614Z,41.18
2018-09-28T13:58:11.787Z,40.60
2018-09-28T14:00:41.052Z,40.70
2018-09-28T14:03:10.403Z,40.51
2018-09-28T14:05:39.529Z,40.60
2018-09-28T14:08:08.640Z,40.76
2018-09-28T14:10:38.096Z,39.07
2018-09-28T14:13:07.739Z,40.00
2018-09-28T14:15:36.836Z,41.31
2018-09-28T14:18:06.262Z,42.32
2018-09-28T14:20:35.581Z,42.32
2018-09-28T14:23:04.844Z,41.78
2018-09-28T14:25:34.074Z,42.40
2018-09-28T14:28:03.307Z,42.23
2018-09-28T14:30:32.546Z,42.07
2018-09-28T14:33:01.780Z,41.84
2018-09-28T14:35:30.829Z,41.42
2018-09-28T14:37:59.920Z,41.27
2018-09-28T14:40:29.016Z,40.79
2018-09-28T14:42:58.264Z,40.57
2018-09-28T14:45:27.332Z,39.20
2018-09-28T14:47:56.407Z,37.12
2018-09-28T14:50:25.667Z,36.36
2018-09-28T14:52:54.908Z,36.22
2018-09-28T14:55:24.000Z,36.79
2018-09-28T14:57:53.075Z,36.34
2018-09-28T15:00:22.439Z,35.55
2018-09-28T15:02:51.817Z,35.37
2018-09-28T15:05:21.001Z,34.87
2018-09-28T15:07:50.094Z,34.41
2018-09-28T15:10:19.315Z,34.29
2018-09-28T15:12:48.595Z,34.33
2018-09-28T15:15:17.715Z,34.69
2018-09-28T15:17:46.967Z,34.30
2018-09-28T15:20:16.028Z,34.50
2018-09-28T15:22:45.183Z,34.51
2018-09-28T15:25:14.261Z,35.44
2018-09-28T15:27:43.384Z,35.37
2018-09-28T15:30:12.482Z,35.57
2018-09-28T15:32:41.788Z,35.73
2018-09-28T15:35:11.020Z,35.86
2018-09-28T15:37:40.291Z,36.50
2018-09-28T15:40:10.222Z,36.31
2018-09-28T15:42:39.320Z,35.74
2018-09-28T15:45:08.487Z,36.04
2018-09-28T15:47:37.694Z,35.98
2018-09-28T15:50:06.948Z,36.09
2018-09-28T15:52:36.094Z,35.95
2018-09-28T15:55:05.196Z,35.36
2018-09-28T15:57:34.292Z,35.49
2018-09-28T16:00:03.492Z,35.46
2018-09-28T16:02:32.693Z,35.16
2018-09-28T16:05:01.900Z,35.47
2018-09-28T16:07:30.976Z,35.16
2018-09-28T16:10:00.053Z,35.18
2018-09-28T16:12:29.168Z,35.22
2018-09-28T16:14:58.244Z,35.17
2018-09-28T16:17:27.350Z,35.31
2018-09-28T16:19:56.540Z,35.36
2018-09-28T16:22:25.618Z,35.20
2018-09-28T16:24:54.736Z,35.46
2018-09-28T16:27:24.429Z,35.06
2018-09-28T16:29:53.496Z,35.46
2018-09-28T16:32:22.556Z,35.41
2018-09-28T16:34:51.624Z,35.64
2018-09-28T16:37:21.644Z,35.52
2018-09-28T16:39:50.843Z,35.83
2018-09-28T16:42:19.980Z,35.77
2018-09-28T16:44:49.071Z,35.38
2018-09-28T16:47:18.143Z,35.65
2018-09-28T16:49:47.221Z,35.53
2018-09-28T16:52:16.276Z,36.08
2018-09-28T16:54:45.427Z,35.76
2018-09-28T16:57:14.602Z,35.44
2018-09-28T16:59:43.725Z,35.67
2018-09-28T17:02:12.926Z,35.58
2018-09-28T17:04:42.292Z,35.71
2018-09-28T17:07:11.420Z,35.65
2018-09-28T17:09:40.502Z,35.82
2018-09-28T17:12:09.578Z,35.74
2018-09-28T17:14:38.917Z,36.15
2018-09-28T17:17:08.001Z,36.10
2018-09-28T17:19:37.170Z,36.22
2018-09-28T17:22:06.218Z,36.18
2018-09-28T17:24:35.341Z,35.78
2018-09-28T17:27:04.886Z,36.34
2018-09-28T17:29:34.156Z,36.39
2018-09-28T17:32:03.284Z,36.27
2018-09-28T17:34:32.407Z,36.45
2018-09-28T17:37:01.553Z,36.38
2018-09-28T17:39:30.653Z,36.49
2018-09-28T17:41:59.818Z,36.30
2018-09-28T17:44:28.842Z,36.45
2018-09-28T17:46:57.917Z,36.52
2018-09-28T17:49:27.108Z,36.18
2018-09-28T17:51:56.299Z,36.31
2018-09-28T17:54:25.402Z,36.50
2018-09-28T17:56:54.467Z,36.37
2018-09-28T17:59:23.644Z,36.25
2018-09-28T18:01:52.716Z,36.18
2018-09-28T18:04:21.858Z,35.94
2018-09-28T18:06:50.954Z,36.32
2018-09-28T18:09:20.169Z,36.19
2018-09-28T18:11:49.324Z,35.91
2018-09-28T18:14:18.523Z,36.08
2018-09-28T18:16:47.748Z,36.10
2018-09-28T18:19:16.984Z,36.02
2018-09-28T18:21:46.162Z,35.85
2018-09-28T18:24:15.240Z,36.30
2018-09-28T18:26:44.308Z,35.93
2018-09-28T18:29:13.377Z,36.18
2018-09-28T18:31:42.548Z,36.28
2018-09-28T18:34:11.750Z,36.27
2018-09-28T18:36:40.901Z,36.23
2018-09-28T18:39:10.538Z,36.10
2018-09-28T18:41:39.723Z,36.06
2018-09-28T18:44:09.045Z,36.10
2018-09-28T18:46:38.143Z,35.72
2018-09-28T18:49:07.304Z,35.92
2018-09-28T18:51:36.700Z,36.16
2018-09-28T18:54:05.753Z,36.28
2018-09-28T18:56:34.920Z,36.23
2018-09-28T18:59:04.121Z,36.40
2018-09-28T19:01:33.223Z,36.14
2018-09-28T19:04:02.343Z,36.40
2018-09-28T19:06:31.502Z,36.13
2018-09-28T19:09:08.667Z,36.77
2018-09-28T19:11:37.761Z,36.77
2018-09-28T19:14:07.079Z,36.74
2018-09-28T19:16:36.180Z,36.91
2018-09-28T19:19:05.389Z,37.48
2018-09-28T19:21:34.490Z,37.43
2018-09-28T19:24:03.799Z,37.64
2018-09-28T19:26:32.986Z,37.64
2018-09-28T19:29:02.204Z,38.05
2018-09-28T19:31:31.384Z,37.94
2018-09-28T19:34:00.480Z,38.18
2018-09-28T19:36:29.660Z,38.69
2018-09-28T19:38:58.722Z,38.54
2018-09-28T19:41:27.873Z,38.95
2018-09-28T19:43:57.056Z,38.53
2018-09-28T19:46:26.120Z,38.92
2018-09-28T19:48:55.242Z,39.18
2018-09-28T19:51:24.300Z,38.91
2018-09-28T19:53:53.417Z,39.11
2018-09-28T19:56:22.552Z,39.61
2018-09-28T19:58:51.676Z,39.18
2018-09-28T20:01:20.756Z,39.46
2018-09-28T20:03:49.882Z,39.83
2018-09-28T20:06:19.072Z,39.45
2018-09-28T20:08:48.348Z,40.00
2018-09-28T20:11:17.528Z,40.07
2018-09-28T20:13:46.692Z,40.04
2018-09-28T20:16:16.055Z,40.12
2018-09-28T20:18:45.123Z,39.88
2018-09-28T20:21:14.217Z,40.05
2018-09-28T20:23:43.296Z,39.95
2018-09-28T20:26:12.843Z,40.30
2018-09-28T20:28:42.093Z,40.48
2018-09-28T20:31:11.242Z,40.54
2018-09-28T20:33:40.318Z,40.32
2018-09-28T20:36:09.399Z,40.47
2018-09-28T20:38:38.647Z,40.32
2018-09-28T20:41:07.850Z,40.62
2018-09-28T20:43:36.952Z,40.57
2018-09-28T20:46:06.306Z,40.67
2018-09-28T20:48:35.399Z,40.65
2018-09-28T20:51:04.469Z,40.68
2018-09-28T20:53:33.529Z,40.53
2018-09-28T20:56:02.733Z,40.99
2018-09-28T20:58:32.075Z,40.80
2018-09-28T21:01:03.129Z,40.55
2018-09-28T21:03:32.355Z,41.02
2018-09-28T21:06:01.605Z,41.00
2018-09-28T21:08:30.721Z,40.91
2018-09-28T21:10:59.797Z,40.76
2018-09-28T21:13:28.870Z,40.97
2018-09-28T21:15:58.215Z,41.00
2018-09-28T21:18:27.341Z,41.11
2018-09-28T21:20:56.615Z,41.10
2018-09-28T21:23:25.703Z,40.96
2018-09-28T21:25:55.001Z,41.07
2018-09-28T21:28:24.194Z,41.20
2018-09-28T21:30:53.377Z,41.48
2018-09-28T21:33:22.637Z,41.48
2018-09-28T21:35:51.701Z,41.26
2018-09-28T21:38:20.797Z,41.44
2018-09-28T21:40:49.908Z,41.66
2018-09-28T21:43:19.268Z,41.68
2018-09-28T21:45:48.372Z,41.60
2018-09-28T21:48:17.499Z,41.77
2018-09-28T21:50:46.580Z,41.64
2018-09-28T21:53:15.676Z,41.82
2018-09-28T21:55:44.807Z,41.63
2018-09-28T21:58:13.912Z,41.51
2018-09-28T22:00:42.999Z,41.75
2018-09-28T22:03:12.467Z,41.95
2018-09-28T22:05:41.637Z,41.61
2018-09-28T22:08:10.897Z,42.03
2018-09-28T22:10:40.055Z,42.16
2018-09-28T22:13:09.157Z,41.71
2018-09-28T22:15:38.427Z,41.71
2018-09-28T22:18:07.572Z,41.96
2018-09-28T22:20:36.768Z,42.13
2018-09-28T22:23:06.227Z,41.74
2018-09-28T22:25:35.371Z,41.81
2018-09-28T22:28:04.605Z,41.89
2018-09-28T22:30:33.685Z,41.90
2018-09-28T22:33:02.763Z,41.94
2018-09-28T22:35:31.857Z,41.96
2018-09-28T22:38:00.943Z,41.73
2018-09-28T22:40:30.040Z,41.98
2018-09-28T22:42:59.139Z,41.98
2018-09-28T22:45:28.330Z,42.40
2018-09-28T22:47:57.532Z,41.94
2018-09-28T22:50:26.648Z,42.22
2018-09-28T22:52:55.703Z,42.05
2018-09-28T22:55:24.771Z,42.40
2018-09-28T22:57:53.924Z,42.13
2018-09-28T23:00:23.021Z,42.31
2018-09-28T23:02:52.116Z,42.08
2018-09-28T23:05:21.195Z,42.35
2018-09-28T23:07:50.295Z,42.22
2018-09-28T23:10:19.415Z,42.19
2018-09-28T23:12:48.517Z,42.19
2018-09-28T23:15:17.604Z,42.00
2018-09-28T23:17:46.675Z,42.44
2018-09-28T23:20:15.732Z,42.36
2018-09-28T23:22:44.923Z,42.21
2018-09-28T23:25:14.076Z,42.38
2018-09-28T23:27:43.263Z,42.49
2018-09-28T23:30:12.365Z,42.19
2018-09-28T23:32:41.583Z,42.25
2018-09-28T23:35:10.689Z,42.15
2018-09-28T23:37:39.732Z,42.48
2018-09-28T23:40:08.850Z,42.44
2018-09-28T23:42:37.940Z,42.51
2018-09-28T23:45:06.996Z,42.54
2018-09-28T23:47:36.193Z,42.33
2018-09-28T23:50:05.480Z,42.55
2018-09-28T23:52:34.647Z,42.81
2018-09-28T23:55:03.928Z,42.72
2018-09-28T23:57:33.048Z,42.43
